• Join FlightAware (Why Join?)
  • Login
  • US Flag 
12:15AM EST


 

Airport Tracker/Info


-or-


 

Live Flight TrackerFlight Track Log ✈ N680AN ✈ 23-Apr-2013 ✈ KMIA - KMCO

Flight Track Log - Related Links

Times and Time Zones

All times are in EDT time to prevent confusion due to time zone crossing. See the N680AN flight status page for this flight to view local times or setup timezone preferences in your user account.

Time Position Orientation Groundspeed Altitude Reporting Facility
EDT Latitude Longitude Course Direction KTS MPH feet Rate Location/Type
12:36PM 25.7981 -80.2767 336° Northwest 168 193 900  Level Miami Center
12:37PM 25.8036 -80.2192 84° East 222 255 3,400 2,580 Climbing Miami Center
12:37PM 25.8047 -80.1756 88° East 250 288 5,200 2,940 Climbing Miami Center
12:38PM 26.0239 -80.3629 340° North  Level FlightAware Approximate
12:38PM 25.8261 -80.1506 46° Northeast 252 290 6,300  Level Miami Center
12:38PM 25.8697 -80.1542 356° North 283 326 7,000 1,380 Climbing Miami Center
12:39PM 26.1044 -80.3904 343° North  Level FlightAware Approximate
12:39PM 25.8967 -80.1686 334° Northwest 277 319 7,700  Level Miami Center
12:39PM 25.9294 -80.1997 320° Northwest 283 326 9,500 2,880 Climbing Miami Center
12:40PM 26.1852 -80.4167 North  Level FlightAware Approximate
12:40PM 25.9625 -80.2167 335° Northwest 299 344 10,600  Level Miami Center
12:40PM 26.0033 -80.2550 320° Northwest 334 384 11,700 1,680 Climbing Miami Center
12:41PM 26.2648 -80.4407 336° Northwest  Level FlightAware Approximate
12:41PM 26.0364 -80.2744 332° Northwest 347 399 12,300  Level Miami Center
12:42PM 26.1183 -80.3392 325° Northwest 358 412 15,200 2,640 Climbing Miami Center
12:43PM 26.2044 -80.4064 325° Northwest 369 425 17,600 1,860 Climbing Miami Center
12:44PM 26.3033 -80.4650 332° Northwest 389 448 19,000 660 Climbing Miami Center
12:45PM 26.4167 -80.5172 338° Northwest 406 467 19,000  Level Miami Center
12:46PM 26.5097 -80.5642 336° Northwest 406 467 19,000  Level Miami Center
12:47PM 26.6231 -80.6167 338° Northwest 401 461 19,000  Level Miami Center
12:48PM 26.7181 -80.6614 337° Northwest 401 461 19,000  Level Miami Center
12:49PM 26.8314 -80.7139 338° Northwest 396 456 19,000  Level Miami Center
12:50PM 26.9369 -80.7525 342° North 396 456 19,000  Level Miami Center
12:51PM 27.0467 -80.7911 343° North 391 450 19,000  Level Miami Center
12:52PM 27.1519 -80.8272 343° North 396 456 19,000  Level Miami Center
12:53PM 27.2575 -80.8658 342° North 396 456 19,000  Level Miami Center
12:54PM 27.3672 -80.9025 343° North 401 461 19,000 -660 Level Miami Center
12:55PM 27.4725 -80.9436 341° North 401 461 17,700 -2,400 Descending Miami Center
12:56PM 27.5756 -80.9825 342° North 401 461 14,200 -3,180 Descending Miami Center
12:57PM 27.6769 -81.0167 343° North 395 455 11,400 -1,860 Descending Miami Center
12:58PM 27.7678 -81.0503 342° North 374 430 10,500 -1,020 Descending Miami Center
01:00PM 27.9500 -81.1167 342° North 279 321 8,000 -720 Descending Orlando TRACON
01:01PM 28.0333 -81.1333 350° North 259 298 8,000 -540 Level Orlando TRACON
01:02PM 28.1000 -81.1333 360° North 226 260 6,900 -1,380 Descending Orlando TRACON
01:03PM 28.1167 -81.2000 286° West 231 266 5,300 -1,440 Descending Orlando TRACON
01:04PM 28.1333 -81.2667 286° West 229 264 4,000 -660 Descending Orlando TRACON
01:05PM 28.1833 -81.3167 319° Northwest 218 251 4,000 -180 Level Orlando TRACON
01:06PM 28.2333 -81.3167 360° North 196 226 3,700 -300 Descending Orlando TRACON